Time;durP1;ratioP1;P1;durP2;ratioP2;P2;SDS_P1;SDS_P2;PMS_P1;PMS_P2;Temp;Humidity;BMP_temperature;BMP_pressure;BME280_temperature;BME280_humidity;BME280_pressure;Samples;Min_cycle;Max_cycle;Signal;HPM_P1;HPM_P2
2023/07/27 00:04:02;;;;;;;2.25;2.00;;;12.30;99.90;;;;;;10579929;28;20217;-88
2023/07/27 00:09:05;;;;;;;2.72;2.13;;;12.40;99.90;;;;;;10529460;28;20229;-88
2023/07/27 00:14:07;;;;;;;2.78;2.10;;;12.50;99.90;;;;;;10537447;28;20217;-88
2023/07/27 00:19:10;;;;;;;3.10;2.00;;;12.40;99.90;;;;;;10518948;28;20201;-88
2023/07/27 00:24:12;;;;;;;2.25;2.05;;;12.20;99.90;;;;;;10537299;28;20274;-88
2023/07/27 00:29:15;;;;;;;1.52;1.42;;;12.20;99.90;;;;;;10537305;28;20216;-88
2023/07/27 00:34:18;;;;;;;3.78;1.60;;;12.60;99.90;;;;;;10537035;28;20197;-88
2023/07/27 00:39:21;;;;;;;3.40;1.92;;;12.80;99.90;;;;;;10519186;28;20565;-88
2023/07/27 00:44:23;;;;;;;2.47;1.83;;;12.30;99.90;;;;;;10518246;28;20217;-88
2023/07/27 00:49:26;;;;;;;3.35;1.98;;;12.10;99.90;;;;;;10518405;28;20275;-88
2023/07/27 00:54:29;;;;;;;2.28;1.92;;;11.90;99.90;;;;;;10518512;28;20239;-88
2023/07/27 00:59:32;;;;;;;2.20;1.70;;;11.70;99.90;;;;;;10536595;28;20552;-88
2023/07/27 01:04:35;;;;;;;2.30;1.85;;;11.60;99.90;;;;;;10517893;28;20589;-88
2023/07/27 01:09:38;;;;;;;3.42;2.10;;;11.50;99.90;;;;;;10524779;28;20222;-88
2023/07/27 01:14:50;;;;;;;2.67;1.80;;;11.40;99.90;;;;;;10544199;28;20202;-88
2023/07/27 01:20:32;;;;;;;2.10;1.63;;;11.40;99.90;;;;;;10525788;28;20205;-88
2023/07/27 01:25:57;;;;;;;2.47;1.88;;;11.40;99.90;;;;;;10524996;28;20229;-88
2023/07/27 01:31:12;;;;;;;2.05;1.60;;;11.40;99.90;;;;;;10543662;28;20189;-88
2023/07/27 01:36:21;;;;;;;2.80;2.15;;;11.50;99.90;;;;;;10524903;28;20209;-88
2023/07/27 01:41:26;;;;;;;1.65;1.33;;;11.40;99.90;;;;;;10542703;28;20213;-88
2023/07/27 01:46:32;;;;;;;2.63;2.40;;;11.40;99.90;;;;;;10524394;28;20225;-88
2023/07/27 01:51:37;;;;;;;3.40;2.50;;;11.40;99.90;;;;;;10542994;28;20557;-88
2023/07/27 01:56:41;;;;;;;2.47;2.13;;;11.20;99.90;;;;;;10523941;28;20266;-88
2023/07/27 02:01:44;;;;;;;3.38;2.58;;;11.20;99.90;;;;;;10507252;28;20206;-88
2023/07/27 02:06:52;;;;;;;3.65;2.15;;;11.30;99.90;;;;;;10507371;28;20275;-88
2023/07/27 02:12:00;;;;;;;3.55;2.45;;;11.10;99.90;;;;;;10541942;28;20201;-88
2023/07/27 02:17:12;;;;;;;3.60;2.03;;;11.10;99.90;;;;;;10505945;28;20202;-88
2023/07/27 02:22:15;;;;;;;3.05;2.13;;;11.10;99.90;;;;;;10522982;28;20210;-88
2023/07/27 02:27:18;;;;;;;3.15;2.25;;;10.90;99.90;;;;;;10522515;28;20258;-88
2023/07/27 02:32:20;;;;;;;4.30;2.13;;;10.90;99.90;;;;;;10522314;28;20197;-88
2023/07/27 02:37:23;;;;;;;2.22;2.03;;;10.90;99.90;;;;;;10540390;28;20259;-88
2023/07/27 02:42:25;;;;;;;2.80;2.35;;;10.90;99.90;;;;;;10522234;28;20227;-88
2023/07/27 02:47:28;;;;;;;3.42;3.00;;;10.90;99.90;;;;;;10522202;28;20197;-88
2023/07/27 02:52:31;;;;;;;3.45;2.00;;;10.90;99.90;;;;;;10540335;28;20251;-88
2023/07/27 02:57:37;;;;;;;5.10;2.10;;;10.80;99.90;;;;;;10505770;28;20201;-88
2023/07/27 03:02:41;;;;;;;3.00;2.33;;;10.80;99.90;;;;;;10521314;28;20243;-88
2023/07/27 03:07:43;;;;;;;7.97;3.25;;;10.80;99.90;;;;;;10504410;28;20711;-88
2023/07/27 03:12:49;;;;;;;3.08;2.47;;;10.70;99.90;;;;;;10521154;28;20247;-88
2023/07/27 03:17:51;;;;;;;6.07;3.20;;;10.90;99.90;;;;;;10538368;28;20198;-88
2023/07/27 03:22:54;;;;;;;4.32;2.67;;;11.00;99.90;;;;;;10520194;28;20282;-88
2023/07/27 03:27:56;;;;;;;5.63;2.67;;;11.00;99.90;;;;;;10538960;28;20193;-88
2023/07/27 03:32:59;;;;;;;4.95;2.85;;;11.00;99.90;;;;;;10502358;28;20227;-88
2023/07/27 03:38:02;;;;;;;2.78;2.47;;;11.10;99.90;;;;;;10538558;28;20656;-88
2023/07/27 03:43:05;;;;;;;3.92;3.08;;;11.10;99.90;;;;;;10519763;28;20229;-88
2023/07/27 03:48:08;;;;;;;4.03;2.60;;;11.20;99.90;;;;;;10519635;28;20570;-88
2023/07/27 03:53:11;;;;;;;3.63;3.20;;;11.30;99.90;;;;;;10519349;28;20259;-88
2023/07/27 03:58:14;;;;;;;3.13;2.83;;;11.60;99.90;;;;;;10520159;28;20189;-88
2023/07/27 04:03:17;;;;;;;5.38;2.88;;;11.80;99.90;;;;;;10519215;28;20208;-88
2023/07/27 04:08:20;;;;;;;3.92;2.95;;;12.10;99.90;;;;;;10537511;28;20278;-88
2023/07/27 04:13:22;;;;;;;5.72;2.92;;;12.50;99.90;;;;;;10536766;28;20266;-88
2023/07/27 04:18:25;;;;;;;2.10;1.90;;;12.90;99.90;;;;;;10537453;28;20321;-88
2023/07/27 04:23:28;;;;;;;4.28;2.42;;;13.10;99.90;;;;;;10519164;28;20221;-88
2023/07/27 04:28:30;;;;;;;3.50;2.75;;;13.20;99.90;;;;;;10537363;28;20194;-88
2023/07/27 04:33:33;;;;;;;2.80;2.05;;;13.20;99.90;;;;;;10537369;28;20189;-88
2023/07/27 04:38:36;;;;;;;4.80;2.05;;;13.40;99.90;;;;;;10537012;28;20189;-88
2023/07/27 04:43:39;;;;;;;6.18;3.00;;;13.60;99.90;;;;;;10543520;28;20218;-88
2023/07/27 04:48:42;;;;;;;3.63;2.50;;;13.80;99.90;;;;;;10510560;28;20576;-88
2023/07/27 04:53:44;;;;;;;3.70;2.78;;;13.90;99.90;;;;;;10545149;28;20255;-88
2023/07/27 04:58:47;;;;;;;4.25;2.00;;;14.00;99.90;;;;;;10527128;28;20716;-88
2023/07/27 05:03:51;;;;;;;5.43;2.60;;;14.20;99.90;;;;;;10526430;28;20218;-88
2023/07/27 05:08:53;;;;;;;2.38;2.17;;;14.30;99.90;;;;;;10544353;28;20599;-88
2023/07/27 05:13:56;;;;;;;6.65;2.45;;;14.60;99.90;;;;;;10525433;28;20675;-88
2023/07/27 05:18:58;;;;;;;3.65;2.38;;;14.90;99.80;;;;;;10526016;28;20205;-88
2023/07/27 05:24:01;;;;;;;5.22;2.60;;;15.00;99.10;;;;;;10544336;28;20214;-87
2023/07/27 05:29:03;;;;;;;2.28;1.85;;;15.30;97.90;;;;;;10544086;28;20538;-88
2023/07/27 05:34:07;;;;;;;2.78;1.60;;;15.60;97.50;;;;;;10543668;28;20326;-88
2023/07/27 05:39:10;;;;;;;4.55;2.70;;;16.00;96.50;;;;;;10544079;28;20251;-88
2023/07/27 05:44:13;;;;;;;2.95;2.35;;;16.10;95.60;;;;;;10542884;28;20221;-88
2023/07/27 05:49:15;;;;;;;2.33;1.90;;;16.20;94.50;;;;;;10543200;28;20193;-88
2023/07/27 05:54:19;;;;;;;4.55;2.80;;;16.20;94.60;;;;;;10541824;28;20209;-88
2023/07/27 05:59:22;;;;;;;3.28;2.30;;;16.10;94.60;;;;;;10542203;28;20569;-88
2023/07/27 06:04:27;;;;;;;2.03;1.52;;;16.20;94.50;;;;;;10523851;28;20221;-88
2023/07/27 06:09:30;;;;;;;2.72;2.03;;;16.40;94.40;;;;;;10559242;28;20221;-88
2023/07/27 06:14:32;;;;;;;4.65;1.80;;;16.40;94.00;;;;;;10583432;28;20617;-88
2023/07/27 06:19:35;;;;;;;7.53;3.38;;;16.60;93.70;;;;;;10565892;28;20227;-88
2023/07/27 06:24:38;;;;;;;2.30;1.67;;;16.70;93.20;;;;;;10584555;28;20274;-88
2023/07/27 06:29:40;;;;;;;5.00;3.08;;;16.60;93.20;;;;;;10582756;28;20201;-88
2023/07/27 06:34:43;;;;;;;5.72;2.28;;;16.60;93.20;;;;;;10565667;28;20189;-87
2023/07/27 06:39:45;;;;;;;1.92;1.73;;;16.80;93.00;;;;;;10583490;28;20197;-88
2023/07/27 06:44:48;;;;;;;3.63;2.15;;;17.10;92.70;;;;;;10583539;28;20273;-87
2023/07/27 06:49:51;;;;;;;1.90;1.63;;;17.30;91.70;;;;;;10583402;28;20192;-88
2023/07/27 06:54:54;;;;;;;4.05;1.67;;;17.80;90.80;;;;;;10563850;28;20209;-87
2023/07/27 06:59:57;;;;;;;5.10;2.20;;;17.80;88.80;;;;;;10563735;28;20585;-87
2023/07/27 07:05:00;;;;;;;2.17;1.60;;;17.80;88.80;;;;;;10563982;28;20634;-88
2023/07/27 07:10:03;;;;;;;2.88;2.22;;;18.00;88.90;;;;;;10582000;28;20247;-88
2023/07/27 07:15:06;;;;;;;6.45;1.73;;;18.40;85.30;;;;;;10582230;28;20613;-87
2023/07/27 07:20:09;;;;;;;1.58;1.10;;;18.70;81.30;;;;;;10563813;28;20608;-88
2023/07/27 07:25:12;;;;;;;1.27;1.17;;;18.90;78.70;;;;;;10581980;28;20217;-88
2023/07/27 07:30:16;;;;;;;0.82;0.82;;;19.20;76.90;;;;;;10581395;28;20243;-87
2023/07/27 07:35:20;;;;;;;1.88;1.35;;;19.40;73.70;;;;;;10581344;28;20193;-88
2023/07/27 07:40:24;;;;;;;1.40;1.30;;;19.70;68.80;;;;;;10562335;28;20549;-88
2023/07/27 07:45:27;;;;;;;2.83;1.42;;;20.20;65.00;;;;;;10581032;28;20270;-88
2023/07/27 07:50:30;;;;;;;2.20;1.42;;;20.20;62.90;;;;;;10580086;28;20201;-88
2023/07/27 07:55:36;;;;;;;1.63;1.52;;;20.30;60.20;;;;;;10580640;28;20193;-88
2023/07/27 08:00:39;;;;;;;1.35;1.17;;;20.40;60.80;;;;;;10580696;28;20196;-88
2023/07/27 08:05:42;;;;;;;1.25;1.15;;;20.60;58.80;;;;;;10579154;28;20285;-88
2023/07/27 08:10:44;;;;;;;2.00;1.80;;;20.70;57.50;;;;;;10579461;28;20201;-88
2023/07/27 08:15:51;;;;;;;2.17;1.63;;;20.80;54.10;;;;;;10578759;28;20205;-88
2023/07/27 08:21:01;;;;;;;2.03;1.48;;;20.90;52.70;;;;;;10579955;28;20205;-88
2023/07/27 08:26:08;;;;;;;2.28;1.48;;;21.00;50.90;;;;;;10561541;28;20250;-88
2023/07/27 08:31:11;;;;;;;1.33;0.90;;;21.00;45.60;;;;;;10580020;28;20551;-88
2023/07/27 08:36:13;;;;;;;1.10;0.98;;;21.00;48.10;;;;;;10561344;28;20213;-88
2023/07/27 08:41:16;;;;;;;1.45;1.33;;;21.20;46.20;;;;;;10579033;28;20209;-88
2023/07/27 08:46:20;;;;;;;1.95;0.98;;;21.20;44.70;;;;;;10579629;28;20266;-88
2023/07/27 08:51:22;;;;;;;1.17;0.98;;;21.30;38.70;;;;;;10578607;28;20617;-87
2023/07/27 08:56:25;;;;;;;1.48;0.90;;;21.10;42.00;;;;;;10561019;28;20269;-88
2023/07/27 09:01:28;;;;;;;0.95;0.82;;;21.20;41.00;;;;;;10579312;28;20193;-88
2023/07/27 09:06:44;;;;;;;4.00;1.38;;;21.40;41.70;;;;;;10578761;28;20225;-88
2023/07/27 09:11:47;;;;;;;1.15;1.00;;;21.60;40.40;;;;;;10578405;28;20250;-88
2023/07/27 09:16:51;;;;;;;1.73;1.20;;;21.70;41.60;;;;;;10559734;28;20760;-88
2023/07/27 09:21:57;;;;;;;1.48;1.38;;;21.70;37.60;;;;;;10578302;28;20213;-87
2023/07/27 09:27:02;;;;;;;1.40;1.05;;;21.70;39.10;;;;;;10561298;28;20221;-88
2023/07/27 09:32:08;;;;;;;1.55;1.42;;;21.70;40.00;;;;;;10577059;28;20250;-88
2023/07/27 09:37:10;;;;;;;1.20;1.00;;;21.80;37.40;;;;;;10567479;28;20261;-88
2023/07/27 09:42:14;;;;;;;2.63;1.08;;;21.90;35.10;;;;;;10585836;28;20253;-88
2023/07/27 09:47:21;;;;;;;2.65;1.20;;;22.00;31.20;;;;;;10585708;28;20209;-88
2023/07/27 09:52:25;;;;;;;1.40;1.30;;;22.10;35.00;;;;;;10567340;28;20189;-88
2023/07/27 09:57:29;;;;;;;1.25;1.10;;;22.00;34.60;;;;;;10585613;28;20251;-88
2023/07/27 10:02:33;;;;;;;1.55;1.10;;;22.10;33.20;;;;;;10566061;28;20201;-88
2023/07/27 10:07:36;;;;;;;1.08;1.00;;;22.10;33.50;;;;;;10566392;28;20250;-88
2023/07/27 10:12:57;;;;;;;2.58;1.75;;;22.20;32.10;;;;;;10569158;28;20193;-88
2023/07/27 10:18:00;;;;;;;2.03;1.20;;;22.40;29.00;;;;;;10583620;28;20258;-88
2023/07/27 10:23:18;;;;;;;1.30;1.10;;;22.30;30.00;;;;;;10565716;28;20201;-88
2023/07/27 10:28:47;;;;;;;1.55;1.15;;;22.40;30.00;;;;;;10583353;28;20259;-88
2023/07/27 10:33:52;;;;;;;1.00;0.90;;;22.40;28.80;;;;;;10559487;28;20575;-88
2023/07/27 10:38:56;;;;;;;0.82;0.65;;;22.60;25.40;;;;;;10564051;28;20208;-88
2023/07/27 10:44:08;;;;;;;1.48;1.10;;;22.80;26.30;;;;;;10547877;28;20270;-88
2023/07/27 10:49:12;;;;;;;1.30;1.00;;;23.00;25.60;;;;;;10565103;28;20560;-89
2023/07/27 10:54:15;;;;;;;1.20;1.05;;;23.00;27.30;;;;;;10581892;28;20200;-88
2023/07/27 10:59:18;;;;;;;1.83;1.30;;;23.00;26.80;;;;;;10582755;28;20193;-88
2023/07/27 11:04:21;;;;;;;0.95;0.73;;;23.20;23.10;;;;;;10563562;28;20246;-88
2023/07/27 11:09:23;;;;;;;1.42;1.10;;;23.20;21.50;;;;;;10581133;28;20255;-88
2023/07/27 11:14:27;;;;;;;1.13;1.02;;;23.20;24.90;;;;;;10582322;28;20204;-88
2023/07/27 11:19:29;;;;;;;1.42;1.10;;;23.20;23.50;;;;;;10563860;28;20181;-88
2023/07/27 11:24:33;;;;;;;1.75;1.20;;;23.30;24.70;;;;;;10581290;28;20559;-88
2023/07/27 11:29:39;;;;;;;1.50;0.90;;;23.30;21.80;;;;;;10581458;28;20185;-88
2023/07/27 11:34:42;;;;;;;0.95;0.85;;;23.20;23.90;;;;;;10581444;28;20197;-88
2023/07/27 11:39:45;;;;;;;1.52;1.40;;;23.10;24.20;;;;;;10562622;28;20215;-88
2023/07/27 11:44:48;;;;;;;1.48;1.10;;;23.20;22.10;;;;;;10581168;28;20217;-88
2023/07/27 11:49:52;;;;;;;1.10;1.00;;;23.20;23.70;;;;;;10561668;28;20201;-88
2023/07/27 11:54:55;;;;;;;1.80;1.13;;;23.20;20.30;;;;;;10580496;28;20208;-88
2023/07/27 12:00:14;;;;;;;2.65;1.27;;;23.20;19.70;;;;;;10562510;28;20193;-88
2023/07/27 12:05:22;;;;;;;1.65;1.00;;;23.40;19.20;;;;;;10579297;28;20228;-87
2023/07/27 12:10:25;;;;;;;5.28;2.22;;;23.40;21.00;;;;;;10580319;28;20559;-88
2023/07/27 12:15:35;;;;;;;13.45;7.28;;;23.40;21.50;;;;;;10580485;28;20241;-88
2023/07/27 12:20:38;;;;;;;3.65;2.22;;;23.50;20.60;;;;;;10540629;28;20245;-88
2023/07/27 12:25:44;;;;;;;2.97;2.63;;;23.50;22.90;;;;;;10579008;28;20229;-88
2023/07/27 12:30:47;;;;;;;1.58;1.42;;;23.70;20.90;;;;;;10579927;28;20193;-88
2023/07/27 12:35:50;;;;;;;3.67;2.25;;;23.50;18.70;;;;;;10579061;28;20205;-88
2023/07/27 12:40:54;;;;;;;2.17;1.58;;;23.60;18.10;;;;;;10578591;28;20227;-88
2023/07/27 12:45:57;;;;;;;3.47;2.30;;;23.70;20.20;;;;;;10579181;28;20605;-88
2023/07/27 12:51:00;;;;;;;11.50;6.35;;;23.70;18.30;;;;;;10579458;28;20193;-88
2023/07/27 12:56:03;;;;;;;3.55;2.75;;;23.70;17.00;;;;;;10578525;28;20632;-88
2023/07/27 13:01:05;;;;;;;7.90;6.07;;;23.80;19.60;;;;;;10561235;28;20231;-88
2023/07/27 13:06:08;;;;;;;3.33;2.85;;;23.80;16.90;;;;;;10568393;28;20285;-89
2023/07/27 13:11:10;;;;;;;2.78;2.53;;;23.70;18.40;;;;;;10587623;28;20227;-88
2023/07/27 13:16:13;;;;;;;3.60;3.05;;;23.70;17.70;;;;;;10569151;28;20253;-88
2023/07/27 13:21:15;;;;;;;5.80;4.72;;;23.80;18.20;;;;;;10568561;28;20197;-88
2023/07/27 13:26:19;;;;;;;4.72;3.95;;;23.70;17.90;;;;;;10568211;28;20597;-88
2023/07/27 13:31:23;;;;;;;3.00;1.55;;;23.90;18.00;;;;;;10586619;28;20193;-88
2023/07/27 13:36:25;;;;;;;2.08;1.85;;;24.20;18.60;;;;;;10585690;28;20200;-88
2023/07/27 13:41:28;;;;;;;2.15;1.92;;;24.10;17.40;;;;;;10584732;28;20695;-88
2023/07/27 13:46:30;;;;;;;2.35;1.98;;;24.00;18.20;;;;;;10585756;28;20582;-88
2023/07/27 13:51:33;;;;;;;2.28;2.08;;;23.90;15.70;;;;;;10584965;28;20205;-88
2023/07/27 13:56:36;;;;;;;4.45;1.67;;;23.80;18.40;;;;;;10584510;28;20201;-88
2023/07/27 14:01:38;;;;;;;1.88;1.60;;;23.70;15.90;;;;;;10585387;28;20197;-88
2023/07/27 14:06:41;;;;;;;2.10;1.77;;;23.50;19.90;;;;;;10584126;28;20229;-88
2023/07/27 14:11:44;;;;;;;2.63;1.80;;;23.30;18.80;;;;;;10566032;28;20204;-88
2023/07/27 14:16:46;;;;;;;1.70;1.60;;;23.30;19.40;;;;;;10565029;28;20670;-88
2023/07/27 14:21:49;;;;;;;2.55;2.22;;;23.20;20.70;;;;;;10566526;28;20250;-88
2023/07/27 14:26:51;;;;;;;3.92;2.75;;;22.90;18.30;;;;;;10566296;28;20270;-88
2023/07/27 14:31:54;;;;;;;2.10;1.70;;;22.90;22.00;;;;;;10584506;28;20600;-88
2023/07/27 14:36:56;;;;;;;2.90;2.10;;;22.70;20.40;;;;;;10583658;28;20632;-88
2023/07/27 14:41:59;;;;;;;2.35;2.03;;;22.80;20.80;;;;;;10585215;28;20196;-88
2023/07/27 14:47:02;;;;;;;2.33;1.90;;;22.80;20.20;;;;;;10566149;28;20209;-88
2023/07/27 14:52:05;;;;;;;2.45;2.00;;;22.80;22.20;;;;;;10583035;28;20197;-88
2023/07/27 14:57:08;;;;;;;2.38;2.03;;;23.00;19.60;;;;;;10564909;28;20197;-88
2023/07/27 15:02:15;;;;;;;3.08;2.28;;;23.20;21.50;;;;;;10582150;28;20205;-88
2023/07/27 15:07:17;;;;;;;3.72;2.42;;;23.30;20.20;;;;;;10581733;28;20802;-88
2023/07/27 15:12:20;;;;;;;2.13;1.77;;;23.30;19.10;;;;;;10581501;28;20557;-89
2023/07/27 15:17:23;;;;;;;2.20;2.00;;;23.30;21.50;;;;;;10563574;28;20223;-88
2023/07/27 15:22:25;;;;;;;2.78;2.40;;;23.20;21.10;;;;;;10582424;28;20361;-87
2023/07/27 15:27:28;;;;;;;3.97;2.15;;;23.10;21.30;;;;;;10581435;28;20224;-88
2023/07/27 15:32:30;;;;;;;2.22;2.03;;;23.00;20.70;;;;;;10563522;28;20247;-88
2023/07/27 15:37:33;;;;;;;2.40;2.20;;;22.90;20.60;;;;;;10563424;28;20554;-88
2023/07/27 15:42:35;;;;;;;3.78;2.50;;;22.80;21.00;;;;;;10581361;28;20261;-87
2023/07/27 15:47:38;;;;;;;3.45;2.00;;;22.70;20.70;;;;;;10562843;28;20220;-88
2023/07/27 15:52:42;;;;;;;6.88;2.83;;;22.50;19.70;;;;;;10562573;28;20205;-88
2023/07/27 15:57:45;;;;;;;1.88;1.77;;;22.50;19.00;;;;;;10562031;28;20679;-88
2023/07/27 16:02:47;;;;;;;2.45;2.10;;;22.40;20.30;;;;;;10580452;28;20266;-88
2023/07/27 16:07:50;;;;;;;4.85;2.47;;;22.30;20.50;;;;;;10580136;28;20224;-88
2023/07/27 16:12:53;;;;;;;2.92;2.25;;;22.20;20.60;;;;;;10580993;28;20193;-88
2023/07/27 16:17:56;;;;;;;2.70;2.45;;;22.10;20.50;;;;;;10579540;28;20250;-88
2023/07/27 16:22:58;;;;;;;2.15;2.00;;;21.90;21.80;;;;;;10580334;28;20227;-88
2023/07/27 16:28:01;;;;;;;2.17;1.98;;;22.00;24.80;;;;;;10578850;28;20221;-88
2023/07/27 16:33:04;;;;;;;2.92;2.60;;;21.80;26.60;;;;;;10579198;28;20566;-88
2023/07/27 16:38:06;;;;;;;3.03;2.53;;;21.60;29.20;;;;;;10548011;28;20254;-88
2023/07/27 16:43:09;;;;;;;2.35;2.15;;;21.40;30.30;;;;;;10570136;28;20205;-88
2023/07/27 16:48:13;;;;;;;4.22;2.60;;;21.10;31.70;;;;;;10588074;28;20221;-88
2023/07/27 16:53:15;;;;;;;4.85;3.33;;;20.70;37.10;;;;;;10588106;28;20211;-88
2023/07/27 16:58:18;;;;;;;3.97;3.30;;;20.30;45.10;;;;;;10586983;28;20205;-88
2023/07/27 17:03:21;;;;;;;3.75;2.70;;;19.90;48.80;;;;;;10569653;28;20246;-88
2023/07/27 17:08:24;;;;;;;4.78;3.70;;;19.60;54.50;;;;;;10568829;28;20232;-88
2023/07/27 17:13:26;;;;;;;5.95;3.60;;;19.40;65.20;;;;;;10587552;28;20197;-88
2023/07/27 17:18:34;;;;;;;8.88;4.57;;;19.20;68.40;;;;;;10586709;28;20320;-88
2023/07/27 17:23:37;;;;;;;5.22;3.50;;;19.10;74.90;;;;;;10568695;28;20269;-88
2023/07/27 17:28:39;;;;;;;4.25;3.45;;;18.90;84.10;;;;;;10567849;28;20699;-88
2023/07/27 17:33:42;;;;;;;4.13;3.63;;;18.80;88.70;;;;;;10568129;28;20736;-88
2023/07/27 17:38:44;;;;;;;4.70;4.28;;;18.60;93.60;;;;;;10586531;28;20189;-88
2023/07/27 17:43:47;;;;;;;4.70;3.85;;;18.40;94.40;;;;;;10551327;28;20209;-88
2023/07/27 17:48:49;;;;;;;4.88;3.67;;;18.30;95.30;;;;;;10566380;28;20217;-88
2023/07/27 17:53:52;;;;;;;5.63;3.22;;;18.20;96.80;;;;;;10584801;28;20201;-88
2023/07/27 17:58:54;;;;;;;4.13;3.72;;;18.00;97.40;;;;;;10585963;28;20591;-88
2023/07/27 18:03:57;;;;;;;6.18;3.22;;;17.90;97.70;;;;;;10585580;28;20188;-88
2023/07/27 18:09:00;;;;;;;4.93;4.50;;;17.80;98.40;;;;;;10585301;28;20285;-88
2023/07/27 18:14:02;;;;;;;9.68;4.38;;;17.70;99.30;;;;;;10549608;28;20201;-88
2023/07/27 18:19:05;;;;;;;5.43;4.18;;;17.70;99.90;;;;;;10584137;28;20208;-88
2023/07/27 18:24:08;;;;;;;5.97;4.75;;;17.70;99.90;;;;;;10584986;28;20201;-88
2023/07/27 18:29:29;;;;;;;5.88;3.30;;;17.70;99.90;;;;;;10584705;28;20216;-88
2023/07/27 18:34:31;;;;;;;3.25;2.60;;;17.70;98.80;;;;;;10584588;28;20189;-88
2023/07/27 18:39:34;;;;;;;4.57;4.05;;;17.90;96.10;;;;;;10584156;28;20201;-88
2023/07/27 18:44:37;;;;;;;3.80;3.40;;;17.90;98.50;;;;;;10548894;28;20265;-88
2023/07/27 18:49:39;;;;;;;4.43;3.75;;;17.80;98.80;;;;;;10565798;28;20212;-88
2023/07/27 18:54:42;;;;;;;6.88;4.05;;;17.70;99.90;;;;;;10567318;28;20227;-89
2023/07/27 18:59:45;;;;;;;7.57;5.38;;;17.40;99.90;;;;;;10583734;28;20226;-88
2023/07/27 19:04:48;;;;;;;8.23;5.03;;;17.30;99.90;;;;;;10582942;28;20211;-88
2023/07/27 19:09:50;;;;;;;3.92;3.53;;;17.30;99.90;;;;;;10582113;28;20594;-88
2023/07/27 19:14:53;;;;;;;7.15;4.53;;;17.20;99.90;;;;;;10563633;28;20193;-88
2023/07/27 19:19:56;;;;;;;4.88;3.25;;;17.40;99.90;;;;;;10564505;28;20266;-88
2023/07/27 19:24:58;;;;;;;6.80;4.93;;;17.40;99.90;;;;;;10582005;28;20227;-88
2023/07/27 19:30:01;;;;;;;2.80;2.60;;;17.50;99.90;;;;;;10563134;28;20221;-88
2023/07/27 19:35:04;;;;;;;6.30;5.60;;;17.50;99.70;;;;;;10580507;28;20615;-88
2023/07/27 19:40:08;;;;;;;6.78;5.57;;;17.40;99.90;;;;;;10581463;28;20219;-88
2023/07/27 19:45:12;;;;;;;11.25;6.32;;;17.30;99.90;;;;;;10563604;28;20193;-88
2023/07/27 19:50:15;;;;;;;6.40;5.80;;;17.10;99.90;;;;;;10580368;28;20293;-88
2023/07/27 19:55:18;;;;;;;6.55;5.72;;;17.00;99.90;;;;;;10563066;28;20197;-88
2023/07/27 20:00:21;;;;;;;7.82;5.38;;;17.00;99.90;;;;;;10546405;28;20618;-88
2023/07/27 20:05:23;;;;;;;11.48;7.78;;;17.00;99.90;;;;;;10562594;28;20201;-87
2023/07/27 20:10:26;;;;;;;10.25;7.40;;;16.90;99.90;;;;;;10580010;28;20225;-88
2023/07/27 20:15:28;;;;;;;9.43;6.93;;;16.80;99.90;;;;;;10579697;28;20197;-88
2023/07/27 20:20:31;;;;;;;8.02;6.78;;;16.70;99.90;;;;;;10561980;28;20449;-88
2023/07/27 20:25:33;;;;;;;12.07;7.00;;;16.70;99.90;;;;;;10578877;28;20628;-88
2023/07/27 20:30:36;;;;;;;7.68;5.70;;;16.70;99.90;;;;;;10561359;28;20763;-88
2023/07/27 20:35:39;;;;;;;7.75;5.05;;;16.80;99.90;;;;;;10579821;28;20197;-88
2023/07/27 20:40:41;;;;;;;9.10;7.32;;;16.80;99.90;;;;;;10579123;28;20575;-88
2023/07/27 20:45:44;;;;;;;7.05;6.32;;;16.80;99.90;;;;;;10561092;28;20200;-88
2023/07/27 20:50:46;;;;;;;9.88;6.55;;;16.70;99.90;;;;;;10578716;28;20225;-88
2023/07/27 20:55:49;;;;;;;9.98;6.20;;;16.70;99.90;;;;;;10561260;28;20193;-88
2023/07/27 21:00:59;;;;;;;7.40;6.25;;;16.80;99.90;;;;;;10561526;28;20589;-88
2023/07/27 21:06:03;;;;;;;15.63;6.95;;;16.80;99.90;;;;;;10561358;28;20224;-88
2023/07/27 21:11:08;;;;;;;7.22;5.60;;;16.70;99.90;;;;;;10579301;28;20262;-88
2023/07/27 21:16:10;;;;;;;11.13;6.30;;;16.80;99.90;;;;;;10579477;28;20242;-88
2023/07/27 21:21:19;;;;;;;7.68;6.80;;;16.70;99.90;;;;;;10560966;28;20201;-88
2023/07/27 21:26:22;;;;;;;7.32;6.50;;;16.80;99.90;;;;;;10585169;28;20209;-88
2023/07/27 21:31:24;;;;;;;6.90;5.90;;;16.80;99.90;;;;;;10586813;28;20220;-88
2023/07/27 21:36:27;;;;;;;6.00;5.40;;;16.80;99.90;;;;;;10586464;28;20193;-88
2023/07/27 21:41:30;;;;;;;6.78;6.18;;;16.80;99.90;;;;;;10567872;28;20568;-88
2023/07/27 21:46:32;;;;;;;6.22;5.68;;;16.80;99.90;;;;;;10586436;28;20218;-88
2023/07/27 21:51:35;;;;;;;6.15;5.57;;;16.80;99.90;;;;;;10586475;28;20628;-88
2023/07/27 21:56:38;;;;;;;8.07;5.25;;;16.80;99.90;;;;;;10585204;28;20194;-88
2023/07/27 22:01:40;;;;;;;5.97;5.35;;;16.90;99.90;;;;;;10586041;28;20193;-88
2023/07/27 22:06:43;;;;;;;4.07;3.72;;;16.80;99.90;;;;;;10584758;28;20571;-88
2023/07/27 22:11:45;;;;;;;5.53;4.38;;;17.00;99.90;;;;;;10585058;28;20632;-88
2023/07/27 22:16:48;;;;;;;3.67;3.30;;;17.20;99.90;;;;;;10585400;28;20189;-88
2023/07/27 22:21:50;;;;;;;5.50;4.68;;;17.30;98.80;;;;;;10584127;28;20209;-87
2023/07/27 22:26:53;;;;;;;4.38;3.67;;;17.40;98.90;;;;;;10583815;28;20262;-88
2023/07/27 22:31:55;;;;;;;5.45;4.88;;;17.50;97.90;;;;;;10566116;28;20224;-88
2023/07/27 22:36:58;;;;;;;5.53;4.18;;;17.40;99.50;;;;;;10583739;28;20193;-88
2023/07/27 22:42:00;;;;;;;7.00;3.83;;;17.30;99.90;;;;;;10565562;28;20193;-88
2023/07/27 22:47:03;;;;;;;4.20;3.83;;;17.20;99.90;;;;;;10583894;28;20620;-88
2023/07/27 22:52:06;;;;;;;4.85;3.47;;;17.20;99.90;;;;;;10583844;28;20215;-88
2023/07/27 22:57:11;;;;;;;5.93;4.18;;;17.20;99.90;;;;;;10582080;28;20333;-88
2023/07/27 23:02:15;;;;;;;4.15;3.67;;;17.10;99.90;;;;;;10583134;28;20588;-88
2023/07/27 23:07:18;;;;;;;4.78;4.15;;;17.10;99.90;;;;;;10587541;28;20221;-88
2023/07/27 23:12:20;;;;;;;3.50;3.20;;;17.10;99.90;;;;;;10563441;28;20205;-89
2023/07/27 23:17:23;;;;;;;3.95;3.55;;;17.10;99.90;;;;;;10564116;28;20185;-88
2023/07/27 23:22:25;;;;;;;3.97;3.55;;;17.10;99.90;;;;;;10581563;28;20201;-88
2023/07/27 23:27:28;;;;;;;4.35;2.55;;;17.10;99.90;;;;;;10581203;28;20205;-88
2023/07/27 23:32:30;;;;;;;3.75;3.45;;;17.00;99.90;;;;;;10581261;28;20197;-88
2023/07/27 23:37:33;;;;;;;5.70;3.60;;;16.90;99.90;;;;;;10563091;28;20253;-87
2023/07/27 23:42:36;;;;;;;3.97;3.33;;;16.80;99.90;;;;;;10580442;28;20251;-88
2023/07/27 23:47:38;;;;;;;4.13;3.70;;;16.60;99.90;;;;;;10580670;28;20213;-88
2023/07/27 23:52:41;;;;;;;5.03;3.45;;;16.60;99.90;;;;;;10581874;28;20193;-87
2023/07/27 23:57:43;;;;;;;4.03;3.70;;;16.50;99.90;;;;;;10561752;28;20563;-88
